sensor_id;sensor_type;location;lat;lon;timestamp;temperature;humidity
10263;DHT22;5177;50.068;8.156;2022-07-29T00:02:03;22.60;99.90
10263;DHT22;5177;50.068;8.156;2022-07-29T00:04:28;22.60;99.90
10263;DHT22;5177;50.068;8.156;2022-07-29T00:06:54;22.50;99.90
10263;DHT22;5177;50.068;8.156;2022-07-29T00:09:19;22.50;99.90
10263;DHT22;5177;50.068;8.156;2022-07-29T00:11:45;22.40;99.90
10263;DHT22;5177;50.068;8.156;2022-07-29T00:14:10;22.30;99.90
10263;DHT22;5177;50.068;8.156;2022-07-29T00:16:36;22.30;99.90
10263;DHT22;5177;50.068;8.156;2022-07-29T00:19:01;22.20;99.90
10263;DHT22;5177;50.068;8.156;2022-07-29T00:21:29;22.10;99.90
10263;DHT22;5177;50.068;8.156;2022-07-29T00:23:57;22.00;99.90
10263;DHT22;5177;50.068;8.156;2022-07-29T00:26:23;21.90;99.90
10263;DHT22;5177;50.068;8.156;2022-07-29T00:28:48;21.80;99.90
10263;DHT22;5177;50.068;8.156;2022-07-29T00:31:14;21.60;99.90
10263;DHT22;5177;50.068;8.156;2022-07-29T00:33:40;21.50;99.90
10263;DHT22;5177;50.068;8.156;2022-07-29T00:36:05;21.40;99.90
10263;DHT22;5177;50.068;8.156;2022-07-29T00:38:31;21.40;99.90
10263;DHT22;5177;50.068;8.156;2022-07-29T00:40:57;21.30;99.90
10263;DHT22;5177;50.068;8.156;2022-07-29T00:43:22;21.30;99.90
10263;DHT22;5177;50.068;8.156;2022-07-29T00:45:47;21.20;99.90
10263;DHT22;5177;50.068;8.156;2022-07-29T00:48:13;21.20;99.90
10263;DHT22;5177;50.068;8.156;2022-07-29T00:50:38;21.20;99.90
10263;DHT22;5177;50.068;8.156;2022-07-29T00:53:05;21.20;99.90
10263;DHT22;5177;50.068;8.156;2022-07-29T00:55:31;21.20;99.90
10263;DHT22;5177;50.068;8.156;2022-07-29T00:57:56;21.20;99.90
10263;DHT22;5177;50.068;8.156;2022-07-29T01:00:24;21.30;99.90
10263;DHT22;5177;50.068;8.156;2022-07-29T01:02:49;21.30;99.90
10263;DHT22;5177;50.068;8.156;2022-07-29T01:05:19;21.40;99.90
10263;DHT22;5177;50.068;8.156;2022-07-29T01:07:44;21.40;99.90
10263;DHT22;5177;50.068;8.156;2022-07-29T01:10:11;21.40;99.90
10263;DHT22;5177;50.068;8.156;2022-07-29T01:12:38;21.30;99.90
10263;DHT22;5177;50.068;8.156;2022-07-29T01:15:04;21.30;99.90
10263;DHT22;5177;50.068;8.156;2022-07-29T01:20:16;21.00;99.90
10263;DHT22;5177;50.068;8.156;2022-07-29T01:22:49;20.70;99.90
10263;DHT22;5177;50.068;8.156;2022-07-29T01:28:08;20.10;99.90
10263;DHT22;5177;50.068;8.156;2022-07-29T01:30:37;19.80;99.90
10263;DHT22;5177;50.068;8.156;2022-07-29T01:33:06;19.90;99.90
10263;DHT22;5177;50.068;8.156;2022-07-29T01:35:39;19.70;99.90
10263;DHT22;5177;50.068;8.156;2022-07-29T01:38:07;19.60;99.90
10263;DHT22;5177;50.068;8.156;2022-07-29T01:43:21;19.30;99.90
10263;DHT22;5177;50.068;8.156;2022-07-29T01:46:09;19.20;99.90
10263;DHT22;5177;50.068;8.156;2022-07-29T01:48:39;19.20;99.90
10263;DHT22;5177;50.068;8.156;2022-07-29T01:51:49;19.10;99.90
10263;DHT22;5177;50.068;8.156;2022-07-29T01:53:55;19.10;99.90
10263;DHT22;5177;50.068;8.156;2022-07-29T01:56:24;19.10;99.90
10263;DHT22;5177;50.068;8.156;2022-07-29T01:58:50;19.00;99.90
10263;DHT22;5177;50.068;8.156;2022-07-29T02:01:17;18.90;99.90
10263;DHT22;5177;50.068;8.156;2022-07-29T02:03:44;18.90;99.90
10263;DHT22;5177;50.068;8.156;2022-07-29T02:06:10;19.00;99.90
10263;DHT22;5177;50.068;8.156;2022-07-29T02:08:36;19.00;99.90
10263;DHT22;5177;50.068;8.156;2022-07-29T02:11:02;19.10;99.90
10263;DHT22;5177;50.068;8.156;2022-07-29T02:13:28;19.10;99.90
10263;DHT22;5177;50.068;8.156;2022-07-29T02:15:55;19.10;99.90
10263;DHT22;5177;50.068;8.156;2022-07-29T02:18:22;19.10;99.90
10263;DHT22;5177;50.068;8.156;2022-07-29T02:20:50;19.00;99.90
10263;DHT22;5177;50.068;8.156;2022-07-29T02:23:18;18.90;99.90
10263;DHT22;5177;50.068;8.156;2022-07-29T02:25:44;18.80;99.90
10263;DHT22;5177;50.068;8.156;2022-07-29T02:28:11;18.90;99.90
10263;DHT22;5177;50.068;8.156;2022-07-29T02:30:39;18.80;99.90
10263;DHT22;5177;50.068;8.156;2022-07-29T02:33:06;18.80;99.90
10263;DHT22;5177;50.068;8.156;2022-07-29T02:35:32;18.70;99.90
10263;DHT22;5177;50.068;8.156;2022-07-29T02:37:58;18.70;99.90
10263;DHT22;5177;50.068;8.156;2022-07-29T02:40:42;18.60;99.90
10263;DHT22;5177;50.068;8.156;2022-07-29T02:43:08;18.50;99.90
10263;DHT22;5177;50.068;8.156;2022-07-29T02:45:34;18.50;99.90
10263;DHT22;5177;50.068;8.156;2022-07-29T02:48:00;18.50;99.90
10263;DHT22;5177;50.068;8.156;2022-07-29T02:50:30;18.50;99.90
10263;DHT22;5177;50.068;8.156;2022-07-29T02:53:02;18.50;99.90
10263;DHT22;5177;50.068;8.156;2022-07-29T02:55:37;18.50;99.90
10263;DHT22;5177;50.068;8.156;2022-07-29T02:58:09;18.40;99.90
10263;DHT22;5177;50.068;8.156;2022-07-29T03:00:37;18.40;99.90
10263;DHT22;5177;50.068;8.156;2022-07-29T03:03:03;18.40;99.90
10263;DHT22;5177;50.068;8.156;2022-07-29T03:05:30;18.40;99.90
10263;DHT22;5177;50.068;8.156;2022-07-29T03:08:02;18.40;99.90
10263;DHT22;5177;50.068;8.156;2022-07-29T03:10:29;18.30;99.90
10263;DHT22;5177;50.068;8.156;2022-07-29T03:12:55;18.20;99.90
10263;DHT22;5177;50.068;8.156;2022-07-29T03:15:21;18.20;99.90
10263;DHT22;5177;50.068;8.156;2022-07-29T03:17:47;18.10;99.90
10263;DHT22;5177;50.068;8.156;2022-07-29T03:20:13;18.10;99.90
10263;DHT22;5177;50.068;8.156;2022-07-29T03:22:40;18.00;99.90
10263;DHT22;5177;50.068;8.156;2022-07-29T03:25:12;18.00;99.90
10263;DHT22;5177;50.068;8.156;2022-07-29T03:27:37;18.00;99.90
10263;DHT22;5177;50.068;8.156;2022-07-29T03:30:03;18.00;99.90
10263;DHT22;5177;50.068;8.156;2022-07-29T03:32:29;18.00;99.90
10263;DHT22;5177;50.068;8.156;2022-07-29T03:34:55;17.90;99.90
10263;DHT22;5177;50.068;8.156;2022-07-29T03:37:20;17.90;99.90
10263;DHT22;5177;50.068;8.156;2022-07-29T03:39:46;17.90;99.90
10263;DHT22;5177;50.068;8.156;2022-07-29T03:42:13;17.90;99.90
10263;DHT22;5177;50.068;8.156;2022-07-29T03:44:41;17.90;99.90
10263;DHT22;5177;50.068;8.156;2022-07-29T03:47:07;17.90;99.90
10263;DHT22;5177;50.068;8.156;2022-07-29T03:49:34;17.80;99.90
10263;DHT22;5177;50.068;8.156;2022-07-29T03:52:01;17.80;99.90
10263;DHT22;5177;50.068;8.156;2022-07-29T03:54:26;17.80;99.90
10263;DHT22;5177;50.068;8.156;2022-07-29T03:56:52;17.80;99.90
10263;DHT22;5177;50.068;8.156;2022-07-29T03:59:18;17.80;99.90
10263;DHT22;5177;50.068;8.156;2022-07-29T04:01:45;17.80;99.90
10263;DHT22;5177;50.068;8.156;2022-07-29T04:04:11;17.80;99.90
10263;DHT22;5177;50.068;8.156;2022-07-29T04:06:44;17.80;99.90
10263;DHT22;5177;50.068;8.156;2022-07-29T04:09:10;17.80;99.90
10263;DHT22;5177;50.068;8.156;2022-07-29T04:11:36;17.80;99.90
10263;DHT22;5177;50.068;8.156;2022-07-29T04:14:03;17.90;99.90
10263;DHT22;5177;50.068;8.156;2022-07-29T04:16:29;17.80;99.90
10263;DHT22;5177;50.068;8.156;2022-07-29T04:18:54;17.80;99.90
10263;DHT22;5177;50.068;8.156;2022-07-29T04:21:20;17.80;99.90
10263;DHT22;5177;50.068;8.156;2022-07-29T04:23:45;17.90;99.90
10263;DHT22;5177;50.068;8.156;2022-07-29T04:26:14;17.90;99.90
10263;DHT22;5177;50.068;8.156;2022-07-29T04:28:40;17.90;99.90
10263;DHT22;5177;50.068;8.156;2022-07-29T04:31:07;17.90;99.90
10263;DHT22;5177;50.068;8.156;2022-07-29T04:33:32;18.00;99.90
10263;DHT22;5177;50.068;8.156;2022-07-29T04:35:58;18.00;99.90
10263;DHT22;5177;50.068;8.156;2022-07-29T04:38:23;18.00;99.90
10263;DHT22;5177;50.068;8.156;2022-07-29T04:40:49;18.00;99.90
10263;DHT22;5177;50.068;8.156;2022-07-29T04:43:15;18.10;99.90
10263;DHT22;5177;50.068;8.156;2022-07-29T04:45:40;18.10;99.90
10263;DHT22;5177;50.068;8.156;2022-07-29T04:48:06;18.10;99.90
10263;DHT22;5177;50.068;8.156;2022-07-29T04:50:32;18.10;99.90
10263;DHT22;5177;50.068;8.156;2022-07-29T04:52:57;18.10;99.90
10263;DHT22;5177;50.068;8.156;2022-07-29T04:55:23;18.10;99.90
10263;DHT22;5177;50.068;8.156;2022-07-29T04:57:48;18.10;99.90
10263;DHT22;5177;50.068;8.156;2022-07-29T05:00:14;18.20;99.90
10263;DHT22;5177;50.068;8.156;2022-07-29T05:02:39;18.10;99.90
10263;DHT22;5177;50.068;8.156;2022-07-29T05:05:05;18.10;99.90
10263;DHT22;5177;50.068;8.156;2022-07-29T05:07:30;18.20;99.90
10263;DHT22;5177;50.068;8.156;2022-07-29T05:09:56;18.20;99.90
10263;DHT22;5177;50.068;8.156;2022-07-29T05:12:22;18.20;99.90
10263;DHT22;5177;50.068;8.156;2022-07-29T05:14:48;18.30;99.90
10263;DHT22;5177;50.068;8.156;2022-07-29T05:17:13;18.30;99.90
10263;DHT22;5177;50.068;8.156;2022-07-29T05:19:39;18.30;99.90
10263;DHT22;5177;50.068;8.156;2022-07-29T05:22:04;18.40;99.90
10263;DHT22;5177;50.068;8.156;2022-07-29T05:24:30;18.50;99.90
10263;DHT22;5177;50.068;8.156;2022-07-29T05:26:56;18.50;99.90
10263;DHT22;5177;50.068;8.156;2022-07-29T05:29:21;18.60;99.90
10263;DHT22;5177;50.068;8.156;2022-07-29T05:31:47;18.60;99.90
10263;DHT22;5177;50.068;8.156;2022-07-29T05:34:12;18.70;99.90
10263;DHT22;5177;50.068;8.156;2022-07-29T05:36:38;18.80;99.90
10263;DHT22;5177;50.068;8.156;2022-07-29T05:39:03;18.80;99.90
10263;DHT22;5177;50.068;8.156;2022-07-29T05:41:31;18.90;99.90
10263;DHT22;5177;50.068;8.156;2022-07-29T05:43:57;19.00;99.90
10263;DHT22;5177;50.068;8.156;2022-07-29T05:46:23;19.00;99.90
10263;DHT22;5177;50.068;8.156;2022-07-29T05:48:49;19.10;99.90
10263;DHT22;5177;50.068;8.156;2022-07-29T05:51:14;19.20;99.90
10263;DHT22;5177;50.068;8.156;2022-07-29T05:53:40;19.20;99.90
10263;DHT22;5177;50.068;8.156;2022-07-29T05:56:05;19.30;99.90
10263;DHT22;5177;50.068;8.156;2022-07-29T05:58:31;19.40;99.90
10263;DHT22;5177;50.068;8.156;2022-07-29T06:00:57;19.40;99.90
10263;DHT22;5177;50.068;8.156;2022-07-29T06:03:25;19.50;99.90
10263;DHT22;5177;50.068;8.156;2022-07-29T06:05:51;19.50;99.90
10263;DHT22;5177;50.068;8.156;2022-07-29T06:08:16;19.70;99.90
10263;DHT22;5177;50.068;8.156;2022-07-29T06:10:42;19.80;99.90
10263;DHT22;5177;50.068;8.156;2022-07-29T06:13:08;19.90;99.90
10263;DHT22;5177;50.068;8.156;2022-07-29T06:15:34;20.00;99.90
10263;DHT22;5177;50.068;8.156;2022-07-29T06:17:59;20.00;99.90
10263;DHT22;5177;50.068;8.156;2022-07-29T06:20:25;20.20;99.90
10263;DHT22;5177;50.068;8.156;2022-07-29T06:22:50;20.30;99.90
10263;DHT22;5177;50.068;8.156;2022-07-29T06:25:15;20.40;99.90
10263;DHT22;5177;50.068;8.156;2022-07-29T06:27:41;20.50;99.90
10263;DHT22;5177;50.068;8.156;2022-07-29T06:30:07;20.60;99.90
10263;DHT22;5177;50.068;8.156;2022-07-29T06:32:33;20.70;99.90
10263;DHT22;5177;50.068;8.156;2022-07-29T06:34:58;20.90;99.90
10263;DHT22;5177;50.068;8.156;2022-07-29T06:37:24;21.00;99.90
10263;DHT22;5177;50.068;8.156;2022-07-29T06:39:50;21.10;99.90
10263;DHT22;5177;50.068;8.156;2022-07-29T06:42:35;21.30;99.90
10263;DHT22;5177;50.068;8.156;2022-07-29T06:45:01;21.50;99.90
10263;DHT22;5177;50.068;8.156;2022-07-29T06:47:26;21.60;99.90
10263;DHT22;5177;50.068;8.156;2022-07-29T06:49:51;21.80;99.90
10263;DHT22;5177;50.068;8.156;2022-07-29T06:52:17;21.90;99.90
10263;DHT22;5177;50.068;8.156;2022-07-29T06:54:43;22.10;99.90
10263;DHT22;5177;50.068;8.156;2022-07-29T06:57:13;22.30;99.90
10263;DHT22;5177;50.068;8.156;2022-07-29T06:59:38;22.40;99.90
10263;DHT22;5177;50.068;8.156;2022-07-29T07:02:04;22.40;99.90
10263;DHT22;5177;50.068;8.156;2022-07-29T07:04:29;22.50;99.90
10263;DHT22;5177;50.068;8.156;2022-07-29T07:06:55;22.60;99.90
10263;DHT22;5177;50.068;8.156;2022-07-29T07:09:21;22.60;99.90
10263;DHT22;5177;50.068;8.156;2022-07-29T07:11:46;22.70;99.90
10263;DHT22;5177;50.068;8.156;2022-07-29T07:14:12;22.70;99.90
10263;DHT22;5177;50.068;8.156;2022-07-29T07:16:40;23.00;99.90
10263;DHT22;5177;50.068;8.156;2022-07-29T07:19:06;23.10;99.90
10263;DHT22;5177;50.068;8.156;2022-07-29T07:21:32;23.30;99.90
10263;DHT22;5177;50.068;8.156;2022-07-29T07:23:58;23.40;99.90
10263;DHT22;5177;50.068;8.156;2022-07-29T07:26:23;23.40;99.90
10263;DHT22;5177;50.068;8.156;2022-07-29T07:28:49;23.40;99.90
10263;DHT22;5177;50.068;8.156;2022-07-29T07:31:14;23.60;99.90
10263;DHT22;5177;50.068;8.156;2022-07-29T07:33:40;23.80;99.90
10263;DHT22;5177;50.068;8.156;2022-07-29T07:36:05;23.80;99.90
10263;DHT22;5177;50.068;8.156;2022-07-29T07:38:31;23.90;99.90
10263;DHT22;5177;50.068;8.156;2022-07-29T07:40:56;24.10;99.90
10263;DHT22;5177;50.068;8.156;2022-07-29T07:43:22;24.10;99.90
10263;DHT22;5177;50.068;8.156;2022-07-29T07:45:47;24.20;99.90
10263;DHT22;5177;50.068;8.156;2022-07-29T07:48:13;24.40;99.90
10263;DHT22;5177;50.068;8.156;2022-07-29T07:50:38;24.60;99.90
10263;DHT22;5177;50.068;8.156;2022-07-29T07:53:04;24.60;99.90
10263;DHT22;5177;50.068;8.156;2022-07-29T07:55:30;24.80;99.90
10263;DHT22;5177;50.068;8.156;2022-07-29T07:57:55;24.90;99.90
10263;DHT22;5177;50.068;8.156;2022-07-29T08:00:23;25.10;99.90
10263;DHT22;5177;50.068;8.156;2022-07-29T08:02:49;25.20;99.90
10263;DHT22;5177;50.068;8.156;2022-07-29T08:05:15;25.30;99.90
10263;DHT22;5177;50.068;8.156;2022-07-29T08:08:04;25.50;99.90
10263;DHT22;5177;50.068;8.156;2022-07-29T08:13:25;25.70;99.90
10263;DHT22;5177;50.068;8.156;2022-07-29T08:15:56;25.70;99.90
10263;DHT22;5177;50.068;8.156;2022-07-29T08:18:43;25.70;99.90
10263;DHT22;5177;50.068;8.156;2022-07-29T08:21:29;25.60;99.90
10263;DHT22;5177;50.068;8.156;2022-07-29T08:23:55;25.80;99.90
10263;DHT22;5177;50.068;8.156;2022-07-29T08:26:41;25.90;99.90
10263;DHT22;5177;50.068;8.156;2022-07-29T08:29:07;26.10;99.90
10263;DHT22;5177;50.068;8.156;2022-07-29T08:31:33;26.20;99.90
10263;DHT22;5177;50.068;8.156;2022-07-29T08:33:58;26.40;99.90
10263;DHT22;5177;50.068;8.156;2022-07-29T08:36:25;26.50;99.90
10263;DHT22;5177;50.068;8.156;2022-07-29T08:38:54;26.40;99.90
10263;DHT22;5177;50.068;8.156;2022-07-29T08:41:19;26.40;99.90
10263;DHT22;5177;50.068;8.156;2022-07-29T08:43:48;26.50;99.90
10263;DHT22;5177;50.068;8.156;2022-07-29T08:46:18;26.60;99.90
10263;DHT22;5177;50.068;8.156;2022-07-29T08:48:43;26.80;99.90
10263;DHT22;5177;50.068;8.156;2022-07-29T08:51:12;26.90;99.90
10263;DHT22;5177;50.068;8.156;2022-07-29T08:53:39;27.10;99.90
10263;DHT22;5177;50.068;8.156;2022-07-29T08:56:06;27.10;99.90
10263;DHT22;5177;50.068;8.156;2022-07-29T08:58:34;27.30;99.90
10263;DHT22;5177;50.068;8.156;2022-07-29T09:01:01;27.30;99.90
10263;DHT22;5177;50.068;8.156;2022-07-29T09:03:30;27.40;99.90
10263;DHT22;5177;50.068;8.156;2022-07-29T09:05:57;27.40;99.90
10263;DHT22;5177;50.068;8.156;2022-07-29T09:08:23;27.50;99.90
10263;DHT22;5177;50.068;8.156;2022-07-29T09:10:49;27.40;99.90
10263;DHT22;5177;50.068;8.156;2022-07-29T09:13:14;27.60;99.90
10263;DHT22;5177;50.068;8.156;2022-07-29T09:15:40;27.90;99.90
10263;DHT22;5177;50.068;8.156;2022-07-29T09:18:06;27.80;99.90
10263;DHT22;5177;50.068;8.156;2022-07-29T09:20:31;28.00;99.90
10263;DHT22;5177;50.068;8.156;2022-07-29T09:23:15;28.20;99.90
10263;DHT22;5177;50.068;8.156;2022-07-29T09:25:41;28.00;99.90
10263;DHT22;5177;50.068;8.156;2022-07-29T09:28:10;28.20;99.90
10263;DHT22;5177;50.068;8.156;2022-07-29T09:30:57;28.30;99.90
10263;DHT22;5177;50.068;8.156;2022-07-29T09:33:23;28.30;99.90
10263;DHT22;5177;50.068;8.156;2022-07-29T09:36:02;28.30;99.90
10263;DHT22;5177;50.068;8.156;2022-07-29T09:38:28;28.40;99.90
10263;DHT22;5177;50.068;8.156;2022-07-29T09:41:00;28.10;99.90
10263;DHT22;5177;50.068;8.156;2022-07-29T09:43:26;28.20;99.90
10263;DHT22;5177;50.068;8.156;2022-07-29T09:45:52;28.60;99.90
10263;DHT22;5177;50.068;8.156;2022-07-29T09:48:19;28.90;99.90
10263;DHT22;5177;50.068;8.156;2022-07-29T09:50:45;29.00;99.90
10263;DHT22;5177;50.068;8.156;2022-07-29T09:53:35;29.00;99.90
10263;DHT22;5177;50.068;8.156;2022-07-29T09:55:59;29.10;99.90
10263;DHT22;5177;50.068;8.156;2022-07-29T09:58:24;28.90;99.90
10263;DHT22;5177;50.068;8.156;2022-07-29T10:00:51;28.70;99.90
10263;DHT22;5177;50.068;8.156;2022-07-29T10:03:16;28.40;99.90
10263;DHT22;5177;50.068;8.156;2022-07-29T10:05:42;28.60;99.90
10263;DHT22;5177;50.068;8.156;2022-07-29T10:08:08;28.60;99.90
10263;DHT22;5177;50.068;8.156;2022-07-29T10:10:36;28.80;99.90
10263;DHT22;5177;50.068;8.156;2022-07-29T10:13:09;28.80;99.90
10263;DHT22;5177;50.068;8.156;2022-07-29T10:15:36;28.80;99.90
10263;DHT22;5177;50.068;8.156;2022-07-29T10:18:09;28.90;99.90
10263;DHT22;5177;50.068;8.156;2022-07-29T10:20:35;29.00;99.90
10263;DHT22;5177;50.068;8.156;2022-07-29T10:23:00;29.20;99.90
10263;DHT22;5177;50.068;8.156;2022-07-29T10:25:26;29.40;99.90
10263;DHT22;5177;50.068;8.156;2022-07-29T10:27:52;29.70;99.90
10263;DHT22;5177;50.068;8.156;2022-07-29T10:30:18;29.70;99.70
10263;DHT22;5177;50.068;8.156;2022-07-29T10:32:49;30.10;98.40
10263;DHT22;5177;50.068;8.156;2022-07-29T10:43:30;30.50;98.20
10263;DHT22;5177;50.068;8.156;2022-07-29T10:46:01;30.60;98.40
10263;DHT22;5177;50.068;8.156;2022-07-29T10:48:27;30.40;98.20
10263;DHT22;5177;50.068;8.156;2022-07-29T10:51:02;30.20;98.00
10263;DHT22;5177;50.068;8.156;2022-07-29T10:56:28;30.00;98.40
10263;DHT22;5177;50.068;8.156;2022-07-29T11:01:38;30.70;98.50
10263;DHT22;5177;50.068;8.156;2022-07-29T11:04:03;31.00;97.90
10263;DHT22;5177;50.068;8.156;2022-07-29T11:07:06;31.20;96.30
10263;DHT22;5177;50.068;8.156;2022-07-29T11:09:30;31.30;95.90
10263;DHT22;5177;50.068;8.156;2022-07-29T11:11:56;31.20;95.80
10263;DHT22;5177;50.068;8.156;2022-07-29T11:17:06;31.10;95.00
10263;DHT22;5177;50.068;8.156;2022-07-29T11:19:33;31.00;95.50
10263;DHT22;5177;50.068;8.156;2022-07-29T11:21:58;31.10;95.10
10263;DHT22;5177;50.068;8.156;2022-07-29T11:24:28;31.40;95.10
10263;DHT22;5177;50.068;8.156;2022-07-29T11:27:07;31.70;94.30
10263;DHT22;5177;50.068;8.156;2022-07-29T11:29:32;31.40;93.70
10263;DHT22;5177;50.068;8.156;2022-07-29T11:32:10;31.60;93.60
10263;DHT22;5177;50.068;8.156;2022-07-29T11:34:36;31.60;93.90
10263;DHT22;5177;50.068;8.156;2022-07-29T11:39:38;32.20;93.00
10263;DHT22;5177;50.068;8.156;2022-07-29T11:44:58;32.40;92.30
10263;DHT22;5177;50.068;8.156;2022-07-29T11:47:24;32.20;91.60
10263;DHT22;5177;50.068;8.156;2022-07-29T11:49:50;32.30;92.40
10263;DHT22;5177;50.068;8.156;2022-07-29T11:52:16;32.30;92.50
10263;DHT22;5177;50.068;8.156;2022-07-29T11:54:42;32.50;91.70
10263;DHT22;5177;50.068;8.156;2022-07-29T11:57:08;32.70;90.80
10263;DHT22;5177;50.068;8.156;2022-07-29T11:59:41;32.90;91.60
10263;DHT22;5177;50.068;8.156;2022-07-29T12:02:09;33.00;89.80
10263;DHT22;5177;50.068;8.156;2022-07-29T12:04:48;33.00;90.50
10263;DHT22;5177;50.068;8.156;2022-07-29T12:07:14;33.10;88.10
10263;DHT22;5177;50.068;8.156;2022-07-29T12:09:40;33.10;88.30
10263;DHT22;5177;50.068;8.156;2022-07-29T12:12:15;33.10;85.50
10263;DHT22;5177;50.068;8.156;2022-07-29T12:14:41;33.10;83.90
10263;DHT22;5177;50.068;8.156;2022-07-29T12:17:24;33.10;84.30
10263;DHT22;5177;50.068;8.156;2022-07-29T12:19:49;33.10;84.50
10263;DHT22;5177;50.068;8.156;2022-07-29T12:22:23;33.30;85.90
10263;DHT22;5177;50.068;8.156;2022-07-29T12:24:49;33.30;83.60
10263;DHT22;5177;50.068;8.156;2022-07-29T12:27:17;33.60;82.40
10263;DHT22;5177;50.068;8.156;2022-07-29T12:29:43;33.60;81.70
10263;DHT22;5177;50.068;8.156;2022-07-29T12:32:08;33.60;82.20
10263;DHT22;5177;50.068;8.156;2022-07-29T12:34:34;33.70;81.30
10263;DHT22;5177;50.068;8.156;2022-07-29T12:37:00;33.40;81.60
10263;DHT22;5177;50.068;8.156;2022-07-29T12:39:26;33.60;83.30
10263;DHT22;5177;50.068;8.156;2022-07-29T12:41:53;33.60;81.30
10263;DHT22;5177;50.068;8.156;2022-07-29T12:44:19;33.30;80.30
10263;DHT22;5177;50.068;8.156;2022-07-29T12:46:44;33.50;80.40
10263;DHT22;5177;50.068;8.156;2022-07-29T12:49:20;33.60;80.60
10263;DHT22;5177;50.068;8.156;2022-07-29T12:51:46;33.80;77.00
10263;DHT22;5177;50.068;8.156;2022-07-29T12:54:13;33.80;76.20
10263;DHT22;5177;50.068;8.156;2022-07-29T12:56:42;33.80;76.80
10263;DHT22;5177;50.068;8.156;2022-07-29T12:59:14;33.20;75.60
10263;DHT22;5177;50.068;8.156;2022-07-29T13:01:40;32.60;78.90
10263;DHT22;5177;50.068;8.156;2022-07-29T13:04:05;32.10;79.10
10263;DHT22;5177;50.068;8.156;2022-07-29T13:06:41;31.90;79.70
10263;DHT22;5177;50.068;8.156;2022-07-29T13:09:14;31.50;81.00
10263;DHT22;5177;50.068;8.156;2022-07-29T13:11:43;31.20;80.30
10263;DHT22;5177;50.068;8.156;2022-07-29T13:14:10;31.60;81.00
10263;DHT22;5177;50.068;8.156;2022-07-29T13:16:36;31.70;80.50
10263;DHT22;5177;50.068;8.156;2022-07-29T13:19:03;31.70;80.90
10263;DHT22;5177;50.068;8.156;2022-07-29T13:21:29;31.60;82.30
10263;DHT22;5177;50.068;8.156;2022-07-29T13:23:55;31.50;80.70
10263;DHT22;5177;50.068;8.156;2022-07-29T13:26:20;31.40;82.30
10263;DHT22;5177;50.068;8.156;2022-07-29T13:28:46;31.20;83.00
10263;DHT22;5177;50.068;8.156;2022-07-29T13:31:11;31.20;83.30
10263;DHT22;5177;50.068;8.156;2022-07-29T13:33:37;31.00;87.20
10263;DHT22;5177;50.068;8.156;2022-07-29T13:36:02;30.90;90.10
10263;DHT22;5177;50.068;8.156;2022-07-29T13:38:28;30.70;90.70
10263;DHT22;5177;50.068;8.156;2022-07-29T13:40:53;30.50;91.40
10263;DHT22;5177;50.068;8.156;2022-07-29T13:43:19;30.30;91.40
10263;DHT22;5177;50.068;8.156;2022-07-29T13:45:44;30.20;91.60
10263;DHT22;5177;50.068;8.156;2022-07-29T13:48:09;29.90;91.70
10263;DHT22;5177;50.068;8.156;2022-07-29T13:50:36;29.90;92.00
10263;DHT22;5177;50.068;8.156;2022-07-29T13:53:01;29.70;92.10
10263;DHT22;5177;50.068;8.156;2022-07-29T13:55:27;29.40;92.20
10263;DHT22;5177;50.068;8.156;2022-07-29T13:57:53;29.40;93.40
10263;DHT22;5177;50.068;8.156;2022-07-29T14:00:18;29.30;93.80
10263;DHT22;5177;50.068;8.156;2022-07-29T14:02:44;29.30;94.30
10263;DHT22;5177;50.068;8.156;2022-07-29T14:05:10;29.40;93.70
10263;DHT22;5177;50.068;8.156;2022-07-29T14:07:38;29.60;94.40
10263;DHT22;5177;50.068;8.156;2022-07-29T14:10:04;29.80;95.20
10263;DHT22;5177;50.068;8.156;2022-07-29T14:12:30;29.90;93.80
10263;DHT22;5177;50.068;8.156;2022-07-29T14:14:55;29.90;94.60
10263;DHT22;5177;50.068;8.156;2022-07-29T14:17:21;29.80;93.30
10263;DHT22;5177;50.068;8.156;2022-07-29T14:19:46;29.70;92.60
10263;DHT22;5177;50.068;8.156;2022-07-29T14:22:12;29.50;93.00
10263;DHT22;5177;50.068;8.156;2022-07-29T14:24:37;29.10;93.50
10263;DHT22;5177;50.068;8.156;2022-07-29T14:27:06;29.00;94.40
10263;DHT22;5177;50.068;8.156;2022-07-29T14:29:32;28.90;94.90
10263;DHT22;5177;50.068;8.156;2022-07-29T14:31:57;28.90;96.00
10263;DHT22;5177;50.068;8.156;2022-07-29T14:34:23;28.80;96.00
10263;DHT22;5177;50.068;8.156;2022-07-29T14:36:49;28.70;96.70
10263;DHT22;5177;50.068;8.156;2022-07-29T14:39:14;28.80;98.00
10263;DHT22;5177;50.068;8.156;2022-07-29T14:41:40;28.70;99.90
10263;DHT22;5177;50.068;8.156;2022-07-29T14:44:08;28.70;99.90
10263;DHT22;5177;50.068;8.156;2022-07-29T14:46:33;28.60;99.90
10263;DHT22;5177;50.068;8.156;2022-07-29T14:49:00;28.50;99.90
10263;DHT22;5177;50.068;8.156;2022-07-29T14:51:26;28.50;99.90
10263;DHT22;5177;50.068;8.156;2022-07-29T14:53:51;28.30;99.90
10263;DHT22;5177;50.068;8.156;2022-07-29T14:56:17;28.30;99.90
10263;DHT22;5177;50.068;8.156;2022-07-29T14:58:44;28.10;99.90
10263;DHT22;5177;50.068;8.156;2022-07-29T15:01:09;28.00;99.90
10263;DHT22;5177;50.068;8.156;2022-07-29T15:03:35;27.90;99.90
10263;DHT22;5177;50.068;8.156;2022-07-29T15:06:00;27.80;99.90
10263;DHT22;5177;50.068;8.156;2022-07-29T15:08:26;27.70;99.90
10263;DHT22;5177;50.068;8.156;2022-07-29T15:10:55;27.60;99.90
10263;DHT22;5177;50.068;8.156;2022-07-29T15:13:22;27.50;99.90
10263;DHT22;5177;50.068;8.156;2022-07-29T15:15:48;27.50;99.90
10263;DHT22;5177;50.068;8.156;2022-07-29T15:18:15;27.40;99.90
10263;DHT22;5177;50.068;8.156;2022-07-29T15:20:40;27.20;99.90
10263;DHT22;5177;50.068;8.156;2022-07-29T15:23:06;26.90;99.90
10263;DHT22;5177;50.068;8.156;2022-07-29T15:25:34;26.70;99.90
10263;DHT22;5177;50.068;8.156;2022-07-29T15:28:01;26.40;99.90
10263;DHT22;5177;50.068;8.156;2022-07-29T15:30:29;26.10;99.90
10263;DHT22;5177;50.068;8.156;2022-07-29T15:32:54;25.90;99.90
10263;DHT22;5177;50.068;8.156;2022-07-29T15:35:20;25.80;99.90
10263;DHT22;5177;50.068;8.156;2022-07-29T15:37:45;25.60;99.90
10263;DHT22;5177;50.068;8.156;2022-07-29T15:40:11;25.50;99.90
10263;DHT22;5177;50.068;8.156;2022-07-29T15:42:40;25.30;99.90
10263;DHT22;5177;50.068;8.156;2022-07-29T15:45:08;25.10;99.90
10263;DHT22;5177;50.068;8.156;2022-07-29T15:47:37;25.10;99.90
10263;DHT22;5177;50.068;8.156;2022-07-29T15:50:07;25.10;99.90
10263;DHT22;5177;50.068;8.156;2022-07-29T15:52:38;25.10;99.90
10263;DHT22;5177;50.068;8.156;2022-07-29T15:55:04;25.00;99.90
10263;DHT22;5177;50.068;8.156;2022-07-29T15:57:30;24.90;99.90
10263;DHT22;5177;50.068;8.156;2022-07-29T15:59:55;25.00;99.90
10263;DHT22;5177;50.068;8.156;2022-07-29T16:02:21;24.90;99.90
10263;DHT22;5177;50.068;8.156;2022-07-29T16:04:47;25.00;99.90
10263;DHT22;5177;50.068;8.156;2022-07-29T16:07:12;25.20;99.90
10263;DHT22;5177;50.068;8.156;2022-07-29T16:09:38;25.40;99.90
10263;DHT22;5177;50.068;8.156;2022-07-29T16:12:03;25.80;99.90
10263;DHT22;5177;50.068;8.156;2022-07-29T16:14:29;26.00;99.90
10263;DHT22;5177;50.068;8.156;2022-07-29T16:16:55;26.40;99.90
10263;DHT22;5177;50.068;8.156;2022-07-29T16:19:20;26.60;99.90